Time;durP1;ratioP1;P1;durP2;ratioP2;P2;SDS_P1;SDS_P2;PMS_P1;PMS_P2;Temp;Humidity;BMP_temperature;BMP_pressure;BME280_temperature;BME280_humidity;BME280_pressure;Samples;Min_cycle;Max_cycle;Signal;HPM_P1;HPM_P2
2022/08/03 00:00:23;;;;;;;1.63;1.10;;;18.80;99.90;;;;;;5071877;28;20452;-51
2022/08/03 00:02:50;;;;;;;2.10;1.50;;;18.80;99.90;;;;;;5072031;28;20546;-50
2022/08/03 00:05:17;;;;;;;1.90;1.40;;;18.80;99.90;;;;;;5071855;28;20491;-51
2022/08/03 00:07:45;;;;;;;2.10;1.47;;;18.80;99.90;;;;;;5071582;28;20522;-51
2022/08/03 00:10:13;;;;;;;2.03;1.33;;;18.80;99.90;;;;;;5071665;28;20478;-50
2022/08/03 00:12:40;;;;;;;1.90;1.30;;;18.70;99.90;;;;;;5071664;28;20466;-54
2022/08/03 00:15:08;;;;;;;3.63;1.30;;;18.70;99.90;;;;;;5071785;28;20468;-50
2022/08/03 00:17:35;;;;;;;2.63;1.00;;;18.60;99.90;;;;;;5071741;28;20448;-52
2022/08/03 00:20:02;;;;;;;2.03;1.30;;;18.60;99.90;;;;;;5071336;28;20440;-51
2022/08/03 00:22:29;;;;;;;3.80;1.50;;;18.60;99.90;;;;;;5071838;28;20460;-50
2022/08/03 00:24:57;;;;;;;1.93;1.30;;;18.50;99.90;;;;;;5071541;28;20451;-51
2022/08/03 00:27:24;;;;;;;4.90;1.53;;;18.50;99.90;;;;;;5071288;28;20526;-53
2022/08/03 00:29:51;;;;;;;2.10;1.30;;;18.60;99.90;;;;;;5071304;28;20453;-51
2022/08/03 00:32:18;;;;;;;2.03;1.27;;;18.40;99.90;;;;;;5071417;28;20453;-51
2022/08/03 00:34:45;;;;;;;1.90;1.17;;;18.50;99.90;;;;;;5071313;28;20850;-51
2022/08/03 00:37:12;;;;;;;2.67;0.97;;;18.40;99.90;;;;;;5071158;28;20913;-51
2022/08/03 00:39:42;;;;;;;2.70;1.37;;;18.40;99.90;;;;;;5071151;28;20505;-51
2022/08/03 00:42:10;;;;;;;3.60;1.50;;;18.30;99.90;;;;;;5071163;28;20560;-52
2022/08/03 00:44:40;;;;;;;2.67;1.00;;;18.20;99.90;;;;;;5071314;28;21236;-51
2022/08/03 00:47:09;;;;;;;1.87;1.40;;;18.20;99.90;;;;;;5070947;28;20473;-51
2022/08/03 00:49:36;;;;;;;3.60;1.60;;;18.20;99.90;;;;;;5070653;28;20437;-52
2022/08/03 00:52:04;;;;;;;2.43;1.20;;;18.20;99.90;;;;;;5070815;28;20468;-54
2022/08/03 00:54:32;;;;;;;2.40;1.53;;;18.30;99.90;;;;;;5070431;28;20445;-51
2022/08/03 00:56:59;;;;;;;1.40;1.00;;;18.30;99.90;;;;;;5070784;28;20451;-51
2022/08/03 00:59:27;;;;;;;1.93;1.40;;;18.30;99.90;;;;;;5070746;28;20444;-52
2022/08/03 01:01:54;;;;;;;2.37;1.60;;;18.30;99.90;;;;;;5070792;28;20494;-54
2022/08/03 01:04:21;;;;;;;4.43;1.40;;;18.30;99.90;;;;;;5070716;28;20805;-52
2022/08/03 01:06:52;;;;;;;4.47;1.33;;;18.40;99.90;;;;;;5070593;28;20505;-51
2022/08/03 01:09:26;;;;;;;3.10;1.30;;;18.40;99.90;;;;;;5070607;28;20499;-51
2022/08/03 01:12:03;;;;;;;2.67;1.70;;;18.30;99.90;;;;;;5071058;28;20451;-52
2022/08/03 01:14:36;;;;;;;2.00;1.50;;;18.20;99.90;;;;;;5070633;28;20452;-51
2022/08/03 01:17:12;;;;;;;1.87;1.50;;;18.20;99.90;;;;;;5070798;28;20526;-51
2022/08/03 01:19:49;;;;;;;3.53;1.40;;;18.00;99.90;;;;;;5070361;28;20968;-54
2022/08/03 01:22:40;;;;;;;4.23;1.30;;;17.90;99.90;;;;;;5070544;28;20515;-51
2022/08/03 01:25:15;;;;;;;2.13;1.20;;;18.00;99.90;;;;;;5070500;28;20449;-50
2022/08/03 01:27:54;;;;;;;4.63;1.50;;;17.90;99.90;;;;;;5070224;28;20806;-52
2022/08/03 01:30:27;;;;;;;2.50;1.20;;;18.00;99.90;;;;;;5070512;28;20444;-53
2022/08/03 01:32:59;;;;;;;4.17;1.57;;;17.90;99.90;;;;;;5070239;28;20518;-52
2022/08/03 01:35:32;;;;;;;2.17;1.07;;;18.00;99.90;;;;;;5070785;28;20449;-50
2022/08/03 01:38:04;;;;;;;1.93;1.30;;;18.10;99.90;;;;;;5070335;28;20910;-52
2022/08/03 01:40:34;;;;;;;2.30;1.27;;;18.00;99.90;;;;;;5069981;28;20921;-51
2022/08/03 01:43:03;;;;;;;1.63;1.13;;;17.90;99.90;;;;;;5070244;28;20468;-52
2022/08/03 01:45:32;;;;;;;3.63;1.20;;;17.90;99.90;;;;;;5069966;28;20432;-51
2022/08/03 01:48:00;;;;;;;1.90;1.37;;;17.90;99.90;;;;;;5069992;28;20472;-51
2022/08/03 01:50:30;;;;;;;1.87;1.23;;;17.90;99.90;;;;;;5069839;28;20447;-53
2022/08/03 01:52:58;;;;;;;1.70;1.00;;;18.00;99.90;;;;;;5069884;28;20468;-52
2022/08/03 01:55:27;;;;;;;2.10;1.43;;;18.00;99.90;;;;;;5070377;28;20448;-51
2022/08/03 01:57:55;;;;;;;1.70;1.00;;;18.00;99.90;;;;;;5069912;28;20994;-51
2022/08/03 02:00:25;;;;;;;1.70;1.03;;;18.00;99.90;;;;;;5069763;28;20548;-50
2022/08/03 02:02:56;;;;;;;2.03;1.30;;;18.00;99.90;;;;;;5070100;28;20517;-52
2022/08/03 02:05:25;;;;;;;1.47;0.77;;;18.00;99.90;;;;;;5069971;28;20453;-50
2022/08/03 02:07:52;;;;;;;1.33;1.00;;;18.00;99.90;;;;;;5069318;28;21184;-53
2022/08/03 02:10:21;;;;;;;2.63;1.53;;;18.00;99.90;;;;;;5069595;28;20452;-51
2022/08/03 02:12:49;;;;;;;2.40;1.33;;;17.90;99.90;;;;;;5069988;28;20879;-52
2022/08/03 02:15:18;;;;;;;3.00;1.37;;;17.90;99.90;;;;;;5069805;28;20449;-54
2022/08/03 02:17:47;;;;;;;1.93;1.17;;;17.90;99.90;;;;;;5070238;28;20494;-53
2022/08/03 02:20:16;;;;;;;1.87;1.57;;;17.90;99.90;;;;;;5069486;28;20459;-54
2022/08/03 02:22:44;;;;;;;1.77;1.33;;;17.80;99.90;;;;;;5069763;28;20465;-54
2022/08/03 02:25:13;;;;;;;2.30;1.57;;;17.90;99.90;;;;;;5069541;28;20436;-52
2022/08/03 02:27:46;;;;;;;3.20;1.20;;;17.80;99.90;;;;;;5069842;28;20554;-51
2022/08/03 02:30:13;;;;;;;4.53;1.50;;;17.90;99.90;;;;;;5069531;28;20441;-52
2022/08/03 02:32:47;;;;;;;1.93;1.37;;;17.90;99.90;;;;;;5069487;28;20968;-50
2022/08/03 02:35:19;;;;;;;1.67;1.07;;;17.90;99.90;;;;;;5069661;28;20494;-51
2022/08/03 02:37:50;;;;;;;1.90;1.40;;;17.80;99.90;;;;;;5069758;28;20441;-50
2022/08/03 02:40:19;;;;;;;3.73;1.10;;;17.80;99.90;;;;;;5069351;28;20457;-51
2022/08/03 02:42:49;;;;;;;3.57;1.30;;;17.70;99.90;;;;;;5069478;28;20476;-51
2022/08/03 02:45:18;;;;;;;2.53;1.50;;;17.60;99.90;;;;;;5069504;28;20444;-54
2022/08/03 02:47:47;;;;;;;2.70;1.30;;;17.60;99.90;;;;;;5069359;28;20529;-50
2022/08/03 02:50:17;;;;;;;3.30;1.77;;;17.70;99.90;;;;;;5069159;28;20439;-53
2022/08/03 02:52:47;;;;;;;2.07;1.30;;;17.70;99.90;;;;;;5069132;28;20464;-52
2022/08/03 02:55:16;;;;;;;2.43;1.40;;;17.70;99.90;;;;;;5069453;28;20452;-50
2022/08/03 02:57:44;;;;;;;2.57;1.57;;;17.70;99.90;;;;;;5069448;28;20510;-55
2022/08/03 03:00:14;;;;;;;2.60;1.30;;;17.70;99.90;;;;;;5069344;28;20486;-51
2022/08/03 03:02:42;;;;;;;2.70;1.30;;;17.70;99.90;;;;;;5069221;28;20481;-51
2022/08/03 03:05:10;;;;;;;3.00;1.37;;;17.70;99.90;;;;;;5069339;28;20505;-51
2022/08/03 03:07:40;;;;;;;2.57;1.67;;;17.70;99.90;;;;;;5068628;28;20876;-54
2022/08/03 03:10:09;;;;;;;2.70;1.60;;;17.70;99.90;;;;;;5068834;28;20432;-51
2022/08/03 03:12:38;;;;;;;2.60;1.30;;;17.70;99.90;;;;;;5069252;28;20472;-52
2022/08/03 03:15:06;;;;;;;1.80;1.10;;;17.70;99.90;;;;;;5069213;28;20437;-52
2022/08/03 03:17:34;;;;;;;2.17;1.50;;;17.70;99.90;;;;;;5069346;28;20851;-51
2022/08/03 03:20:02;;;;;;;4.53;1.30;;;17.60;99.90;;;;;;5072640;28;20494;-52
2022/08/03 03:22:30;;;;;;;2.00;1.33;;;17.60;99.90;;;;;;5072885;28;20809;-51
2022/08/03 03:24:59;;;;;;;10.57;1.83;;;17.50;99.90;;;;;;5072756;28;20452;-51
2022/08/03 03:27:27;;;;;;;2.37;1.50;;;17.50;99.90;;;;;;5072690;28;20457;-51
2022/08/03 03:29:54;;;;;;;3.80;1.43;;;17.60;99.90;;;;;;5072302;28;20529;-52
2022/08/03 03:32:21;;;;;;;3.87;1.40;;;17.50;99.90;;;;;;5072499;28;20467;-52
2022/08/03 03:34:48;;;;;;;2.87;1.73;;;17.50;99.90;;;;;;5072415;28;20433;-50
2022/08/03 03:37:15;;;;;;;1.83;1.10;;;17.50;99.90;;;;;;5072380;28;20957;-52
2022/08/03 03:39:42;;;;;;;2.17;1.13;;;17.50;99.90;;;;;;5072543;28;20448;-50
2022/08/03 03:42:10;;;;;;;1.97;1.20;;;17.50;99.90;;;;;;5072319;28;20453;-51
2022/08/03 03:44:38;;;;;;;2.13;1.20;;;17.50;99.90;;;;;;5072398;28;20464;-52
2022/08/03 03:47:05;;;;;;;2.57;1.60;;;17.50;99.90;;;;;;5072443;28;20472;-50
2022/08/03 03:49:32;;;;;;;1.80;1.03;;;17.50;99.90;;;;;;5071753;28;20492;-51
2022/08/03 03:51:59;;;;;;;3.13;1.10;;;17.50;99.90;;;;;;5073079;28;20487;-51
2022/08/03 03:54:26;;;;;;;5.10;1.50;;;17.50;99.90;;;;;;5072263;28;20460;-50
2022/08/03 03:56:53;;;;;;;3.60;1.90;;;17.40;99.90;;;;;;5072354;28;20449;-53
2022/08/03 03:59:21;;;;;;;3.63;1.50;;;17.40;99.90;;;;;;5071772;28;20444;-51
2022/08/03 04:01:48;;;;;;;1.90;1.53;;;17.50;99.90;;;;;;5072057;28;20456;-50
2022/08/03 04:12:32;;;;;;;4.63;1.63;;;17.50;99.90;;;;;;5040359;28;20493;-50
2022/08/03 04:15:03;;;;;;;1.80;1.23;;;17.50;99.90;;;;;;5071813;28;20493;-52
2022/08/03 04:17:32;;;;;;;3.40;1.80;;;17.50;99.90;;;;;;5071600;28;20968;-52
2022/08/03 04:20:02;;;;;;;1.80;1.30;;;17.40;99.90;;;;;;5071577;28;21018;-51
2022/08/03 04:22:32;;;;;;;2.33;1.37;;;17.40;99.90;;;;;;5071390;28;20449;-51
2022/08/03 04:25:02;;;;;;;1.93;1.10;;;17.50;99.90;;;;;;5071718;28;20486;-51
2022/08/03 04:27:34;;;;;;;3.47;1.37;;;17.40;99.90;;;;;;5071682;28;20429;-50
2022/08/03 04:30:05;;;;;;;1.60;1.20;;;17.30;99.90;;;;;;5070164;28;20518;-50
2022/08/03 04:32:33;;;;;;;2.73;1.13;;;17.20;99.90;;;;;;5071369;28;20895;-54
2022/08/03 04:35:00;;;;;;;3.07;1.73;;;17.10;99.90;;;;;;5071423;28;20527;-51
2022/08/03 04:37:35;;;;;;;3.20;1.63;;;17.20;99.90;;;;;;5071554;28;20506;-51
2022/08/03 04:40:05;;;;;;;3.00;1.43;;;17.20;99.90;;;;;;5071135;28;21002;-51
2022/08/03 04:42:34;;;;;;;2.60;1.30;;;17.20;99.90;;;;;;5071250;28;20464;-51
2022/08/03 04:45:03;;;;;;;1.80;1.40;;;17.20;99.90;;;;;;5071286;28;20951;-50
2022/08/03 04:47:33;;;;;;;4.63;1.50;;;17.30;99.90;;;;;;5071017;28;20956;-51
2022/08/03 04:50:01;;;;;;;1.83;1.43;;;17.10;99.90;;;;;;5070712;28;20891;-53
2022/08/03 04:52:28;;;;;;;2.57;1.60;;;17.00;99.90;;;;;;5070916;28;20525;-53
2022/08/03 04:54:55;;;;;;;1.50;1.17;;;17.00;99.90;;;;;;5071251;28;20490;-50
2022/08/03 04:57:22;;;;;;;1.53;1.10;;;17.10;99.90;;;;;;5071074;28;20471;-52
2022/08/03 04:59:53;;;;;;;1.93;1.40;;;17.20;99.90;;;;;;5070673;28;20436;-50
2022/08/03 05:02:21;;;;;;;1.87;1.37;;;17.30;99.90;;;;;;5070704;28;20452;-52
2022/08/03 05:04:48;;;;;;;2.50;1.73;;;17.30;99.90;;;;;;5070833;28;20452;-51
2022/08/03 05:07:16;;;;;;;2.13;1.27;;;17.20;99.90;;;;;;5070329;28;20514;-53
2022/08/03 05:09:44;;;;;;;2.17;1.13;;;17.30;99.90;;;;;;5070333;28;20557;-51
2022/08/03 05:12:11;;;;;;;2.43;1.53;;;17.30;99.90;;;;;;5071042;28;20464;-52
2022/08/03 05:14:39;;;;;;;2.13;1.80;;;17.40;99.90;;;;;;5070606;28;20800;-52
2022/08/03 05:17:06;;;;;;;1.70;0.93;;;17.40;99.90;;;;;;5070801;28;20441;-52
2022/08/03 05:19:35;;;;;;;2.20;1.40;;;17.40;99.90;;;;;;5070368;28;20486;-52
2022/08/03 05:22:02;;;;;;;2.60;1.37;;;17.40;99.90;;;;;;5070376;28;20522;-54
2022/08/03 05:24:29;;;;;;;1.90;1.40;;;17.30;99.90;;;;;;5070449;28;20445;-51
2022/08/03 05:26:56;;;;;;;1.80;1.40;;;17.40;99.90;;;;;;5070408;28;20484;-51
2022/08/03 05:29:23;;;;;;;2.37;1.20;;;17.40;99.90;;;;;;5069971;28;20467;-50
2022/08/03 05:31:50;;;;;;;2.83;1.50;;;17.40;99.90;;;;;;5070334;28;20468;-50
2022/08/03 05:34:17;;;;;;;2.00;1.43;;;17.40;99.90;;;;;;5070268;28;20502;-52
2022/08/03 05:36:45;;;;;;;2.80;1.57;;;17.20;99.90;;;;;;5070246;28;20448;-52
2022/08/03 05:39:12;;;;;;;18.10;1.80;;;17.10;99.90;;;;;;5070081;28;20475;-51
2022/08/03 05:41:39;;;;;;;3.03;1.53;;;16.80;99.90;;;;;;5070053;28;20469;-54
2022/08/03 05:44:06;;;;;;;1.90;1.43;;;16.50;99.90;;;;;;5070028;28;20876;-50
2022/08/03 05:46:33;;;;;;;10.13;1.70;;;16.50;99.90;;;;;;5069967;28;20443;-54
2022/08/03 05:49:00;;;;;;;3.10;1.37;;;16.60;99.90;;;;;;5069784;28;20464;-50
2022/08/03 05:51:27;;;;;;;2.90;2.70;;;16.70;99.90;;;;;;5069748;28;20468;-51
2022/08/03 05:53:56;;;;;;;2.20;1.83;;;16.80;99.90;;;;;;5069894;28;20433;-52
2022/08/03 05:56:24;;;;;;;2.80;1.60;;;16.90;99.90;;;;;;5069904;28;20922;-53
2022/08/03 05:58:51;;;;;;;2.70;1.30;;;17.00;99.90;;;;;;5069803;28;20737;-52
2022/08/03 06:01:20;;;;;;;3.50;1.40;;;17.00;99.90;;;;;;5069687;28;20532;-52
2022/08/03 06:03:47;;;;;;;1.93;1.30;;;17.10;99.90;;;;;;5069806;28;20437;-50
2022/08/03 06:06:15;;;;;;;1.60;1.50;;;17.20;99.90;;;;;;5069501;28;20452;-53
2022/08/03 06:08:43;;;;;;;2.93;1.60;;;17.10;99.90;;;;;;5070017;28;20483;-52
2022/08/03 06:11:11;;;;;;;3.50;1.53;;;17.20;99.90;;;;;;5069778;28;20801;-51
2022/08/03 06:13:39;;;;;;;1.93;1.23;;;17.20;99.90;;;;;;5069846;28;20457;-50
2022/08/03 06:16:06;;;;;;;1.83;1.23;;;17.20;99.90;;;;;;5069906;28;20444;-51
2022/08/03 06:18:33;;;;;;;2.17;1.33;;;17.20;99.90;;;;;;5069599;28;20447;-51
2022/08/03 06:21:00;;;;;;;3.40;1.53;;;17.30;99.90;;;;;;5069685;28;20464;-51
2022/08/03 06:23:27;;;;;;;2.07;1.53;;;17.50;99.90;;;;;;5069821;28;20439;-51
2022/08/03 06:25:54;;;;;;;2.13;1.47;;;17.70;99.90;;;;;;5070043;28;20453;-50
2022/08/03 06:28:22;;;;;;;1.87;1.57;;;18.00;99.90;;;;;;5069762;28;20448;-52
2022/08/03 06:30:49;;;;;;;1.97;1.30;;;18.20;99.90;;;;;;5069593;28;20479;-51
2022/08/03 06:33:16;;;;;;;1.80;1.30;;;18.40;99.90;;;;;;5069736;28;20466;-51
2022/08/03 06:35:43;;;;;;;3.07;1.67;;;18.50;99.90;;;;;;5069712;28;20555;-51
2022/08/03 06:38:11;;;;;;;1.90;1.50;;;18.40;99.90;;;;;;5069797;28;20440;-53
2022/08/03 06:40:39;;;;;;;2.13;1.37;;;18.50;99.90;;;;;;5069183;28;20875;-53
2022/08/03 06:43:07;;;;;;;3.57;1.77;;;18.50;99.90;;;;;;5069569;28;20614;-51
2022/08/03 06:45:36;;;;;;;3.43;1.40;;;18.60;99.90;;;;;;5069560;28;20490;-48
2022/08/03 06:48:05;;;;;;;3.00;1.43;;;18.70;99.90;;;;;;5069559;28;20448;-51
2022/08/03 06:50:33;;;;;;;1.97;1.30;;;18.80;99.90;;;;;;5069165;28;20517;-51
2022/08/03 06:53:00;;;;;;;2.53;1.50;;;19.00;99.90;;;;;;5069943;28;20483;-51
2022/08/03 06:55:28;;;;;;;18.60;12.17;;;19.00;99.90;;;;;;5073155;28;20428;-52
2022/08/03 06:57:55;;;;;;;39.60;23.70;;;19.10;99.90;;;;;;5072970;28;20847;-51
2022/08/03 07:00:22;;;;;;;3.93;2.70;;;19.10;99.90;;;;;;5072994;28;20444;-54
2022/08/03 07:02:50;;;;;;;3.93;2.10;;;19.20;99.90;;;;;;5072871;28;21018;-52
2022/08/03 07:05:18;;;;;;;2.53;1.53;;;19.20;99.90;;;;;;5073155;28;20444;-52
2022/08/03 07:07:45;;;;;;;2.70;1.60;;;19.20;99.90;;;;;;5072756;28;20627;-52
2022/08/03 07:10:12;;;;;;;2.47;1.53;;;19.20;99.90;;;;;;5072561;28;20563;-53
2022/08/03 07:12:40;;;;;;;2.90;1.20;;;19.10;99.90;;;;;;5073236;28;20526;-51
2022/08/03 07:15:08;;;;;;;2.00;1.40;;;19.20;99.90;;;;;;5072840;28;20468;-54
2022/08/03 07:17:36;;;;;;;1.90;1.70;;;19.10;99.90;;;;;;5072762;28;20420;-52
2022/08/03 07:20:06;;;;;;;3.07;2.07;;;19.10;99.90;;;;;;5072698;28;20864;-54
2022/08/03 07:22:34;;;;;;;2.30;1.37;;;19.10;99.90;;;;;;5072690;28;20477;-51
2022/08/03 07:25:01;;;;;;;2.90;1.57;;;19.20;99.90;;;;;;5072708;28;20433;-51
2022/08/03 07:27:29;;;;;;;2.70;1.70;;;19.30;99.90;;;;;;5072528;28;20479;-50
2022/08/03 07:29:56;;;;;;;1.70;1.40;;;19.30;99.90;;;;;;5072113;28;20511;-53
2022/08/03 07:32:24;;;;;;;2.33;1.47;;;19.40;99.90;;;;;;5072972;28;20472;-51
2022/08/03 07:34:51;;;;;;;2.37;1.50;;;19.30;99.90;;;;;;5072337;28;20501;-51
2022/08/03 07:37:19;;;;;;;3.20;1.57;;;19.40;99.90;;;;;;5072555;28;20506;-51
2022/08/03 07:39:46;;;;;;;1.80;1.53;;;19.50;99.90;;;;;;5072290;28;20440;-51
2022/08/03 07:42:13;;;;;;;2.40;1.97;;;19.50;99.90;;;;;;5072399;28;20467;-52
2022/08/03 07:44:41;;;;;;;2.40;2.00;;;19.60;99.90;;;;;;5072289;28;20519;-50
2022/08/03 07:47:08;;;;;;;3.30;1.90;;;19.70;99.90;;;;;;5072283;28;20437;-51
2022/08/03 07:49:39;;;;;;;2.43;1.93;;;19.70;99.90;;;;;;5071963;28;20553;-53
2022/08/03 07:54:52;;;;;;;3.10;2.10;;;19.90;99.90;;;;;;5072301;28;20419;-51
2022/08/03 07:57:19;;;;;;;3.00;1.70;;;19.90;99.90;;;;;;5072361;28;20448;-55
2022/08/03 07:59:46;;;;;;;3.23;2.07;;;20.10;99.90;;;;;;5072112;28;20931;-53
2022/08/03 08:02:14;;;;;;;2.40;1.90;;;20.10;99.90;;;;;;5071945;28;21068;-51
2022/08/03 08:04:41;;;;;;;2.70;1.80;;;20.20;99.90;;;;;;5071889;28;20453;-51
2022/08/03 08:07:08;;;;;;;2.77;1.70;;;20.30;99.90;;;;;;5071688;28;20872;-53
2022/08/03 08:09:35;;;;;;;2.37;1.83;;;20.40;99.90;;;;;;5071651;28;20472;-51
2022/08/03 08:12:04;;;;;;;2.10;1.70;;;20.60;99.90;;;;;;5071784;28;20460;-53
2022/08/03 08:14:31;;;;;;;3.27;1.80;;;20.70;99.90;;;;;;5071836;28;20457;-51
2022/08/03 08:16:58;;;;;;;3.13;1.60;;;20.80;99.90;;;;;;5071786;28;20452;-52
2022/08/03 08:19:25;;;;;;;2.63;1.80;;;21.00;99.90;;;;;;5071288;28;20866;-51
2022/08/03 08:21:52;;;;;;;6.03;2.10;;;21.00;99.90;;;;;;5072155;28;20464;-52
2022/08/03 08:24:19;;;;;;;2.40;1.73;;;21.10;99.90;;;;;;5071828;28;20433;-52
2022/08/03 08:26:46;;;;;;;2.67;1.77;;;21.30;99.90;;;;;;5071803;28;20476;-53
2022/08/03 08:29:15;;;;;;;2.43;1.67;;;21.40;99.90;;;;;;5071294;28;20444;-51
2022/08/03 08:31:42;;;;;;;3.73;1.70;;;21.50;99.90;;;;;;5071658;28;21060;-51
2022/08/03 08:34:09;;;;;;;2.30;1.60;;;21.60;99.90;;;;;;5071591;28;20494;-52
2022/08/03 08:36:36;;;;;;;2.17;1.60;;;21.70;99.90;;;;;;5071280;28;20913;-52
2022/08/03 08:39:03;;;;;;;2.70;1.43;;;21.80;99.90;;;;;;5071101;28;20445;-52
2022/08/03 08:41:32;;;;;;;2.03;1.60;;;21.80;99.90;;;;;;5070947;28;20530;-53
2022/08/03 08:43:59;;;;;;;2.70;1.80;;;22.00;99.90;;;;;;5071476;28;20498;-51
2022/08/03 08:46:29;;;;;;;2.57;1.80;;;22.10;99.90;;;;;;5071178;28;20480;-54
2022/08/03 08:48:57;;;;;;;2.23;1.77;;;22.10;99.90;;;;;;5070979;28;20529;-51
2022/08/03 08:51:28;;;;;;;2.80;2.40;;;22.20;99.90;;;;;;5070722;28;20480;-51
2022/08/03 08:53:58;;;;;;;2.40;1.50;;;22.20;99.90;;;;;;5071009;28;20837;-51
2022/08/03 08:56:26;;;;;;;2.33;1.87;;;22.20;99.90;;;;;;5071318;28;20844;-52
2022/08/03 08:58:57;;;;;;;1.80;1.50;;;22.30;99.90;;;;;;5070885;28;20506;-54
2022/08/03 09:01:24;;;;;;;2.90;1.60;;;22.40;99.90;;;;;;5071260;28;20499;-51
2022/08/03 09:03:53;;;;;;;2.40;1.57;;;22.50;99.90;;;;;;5070837;28;20547;-55
2022/08/03 09:06:21;;;;;;;2.00;1.40;;;22.60;99.90;;;;;;5070879;28;20543;-51
2022/08/03 09:08:48;;;;;;;5.67;2.17;;;22.70;99.90;;;;;;5070451;28;20456;-53
2022/08/03 09:11:16;;;;;;;2.13;1.60;;;22.70;99.90;;;;;;5070392;28;20538;-51
2022/08/03 09:13:43;;;;;;;2.03;1.53;;;22.70;99.90;;;;;;5070617;28;20460;-52
2022/08/03 09:16:12;;;;;;;6.93;2.00;;;22.80;99.90;;;;;;5069994;28;20506;-53
2022/08/03 09:18:40;;;;;;;2.57;1.83;;;22.90;99.90;;;;;;5070580;28;20529;-49
2022/08/03 09:21:16;;;;;;;2.80;1.67;;;23.00;99.90;;;;;;5070339;28;20518;-49
2022/08/03 09:23:47;;;;;;;2.00;1.70;;;23.00;99.90;;;;;;5070429;28;20456;-49
2022/08/03 09:26:21;;;;;;;3.17;2.20;;;23.10;99.90;;;;;;5070470;28;20451;-49
2022/08/03 09:28:56;;;;;;;2.17;1.80;;;23.10;99.90;;;;;;5069980;28;20432;-48
2022/08/03 09:31:34;;;;;;;2.17;1.60;;;23.00;99.90;;;;;;5070042;28;20483;-52
2022/08/03 09:34:03;;;;;;;2.00;1.43;;;23.00;99.90;;;;;;5070474;28;20961;-52
2022/08/03 09:36:40;;;;;;;2.20;1.70;;;23.00;99.90;;;;;;5070239;28;20444;-49
2022/08/03 09:39:10;;;;;;;2.50;1.70;;;23.10;99.90;;;;;;5069859;28;20873;-50
2022/08/03 09:41:38;;;;;;;28.63;4.30;;;23.10;99.90;;;;;;5070330;28;20494;-49
2022/08/03 09:44:05;;;;;;;2.00;1.80;;;23.10;99.90;;;;;;5069898;28;20896;-49
2022/08/03 09:46:48;;;;;;;2.03;1.77;;;23.20;99.90;;;;;;5070150;28;20441;-48
2022/08/03 09:49:15;;;;;;;4.07;2.87;;;23.30;99.90;;;;;;5069984;28;20448;-49
2022/08/03 09:51:43;;;;;;;2.83;1.90;;;23.30;99.90;;;;;;5070742;28;20468;-49
2022/08/03 09:54:10;;;;;;;2.03;1.50;;;23.40;99.90;;;;;;5070438;28;20452;-49
2022/08/03 09:56:42;;;;;;;2.77;2.30;;;23.40;99.90;;;;;;5069991;28;20869;-50
2022/08/03 09:59:10;;;;;;;2.67;1.60;;;23.60;99.90;;;;;;5069933;28;21051;-48
2022/08/03 10:01:40;;;;;;;2.80;1.83;;;23.60;99.90;;;;;;5070424;28;20953;-50
2022/08/03 10:04:13;;;;;;;3.00;1.80;;;23.60;99.90;;;;;;5069883;28;20447;-50
2022/08/03 10:06:40;;;;;;;2.67;1.77;;;23.60;99.90;;;;;;5069632;28;20434;-50
2022/08/03 10:09:10;;;;;;;2.30;2.07;;;23.60;99.90;;;;;;5069630;28;21010;-49
2022/08/03 10:11:38;;;;;;;2.83;1.90;;;23.60;99.90;;;;;;5069646;28;20500;-49
2022/08/03 10:14:06;;;;;;;3.63;1.90;;;23.70;99.90;;;;;;5069693;28;20421;-49
2022/08/03 10:16:35;;;;;;;2.57;2.07;;;23.70;99.90;;;;;;5070041;28;20873;-49
2022/08/03 10:19:04;;;;;;;5.27;1.73;;;23.80;99.90;;;;;;5069738;28;20497;-54
2022/08/03 10:21:34;;;;;;;2.87;1.80;;;23.80;99.90;;;;;;5069778;28;20475;-52
2022/08/03 10:24:04;;;;;;;2.00;1.80;;;23.90;99.90;;;;;;5069760;28;21039;-54
2022/08/03 10:26:34;;;;;;;2.80;2.13;;;23.90;99.90;;;;;;5069833;28;20479;-52
2022/08/03 10:29:06;;;;;;;2.13;1.83;;;24.00;99.90;;;;;;5073614;28;20517;-51
2022/08/03 10:31:39;;;;;;;2.53;1.70;;;24.10;99.90;;;;;;5073601;28;20499;-51
2022/08/03 10:34:12;;;;;;;3.33;2.10;;;24.20;99.90;;;;;;5073818;28;20451;-52
2022/08/03 10:36:41;;;;;;;3.40;1.90;;;24.30;99.90;;;;;;5073670;28;20787;-53
2022/08/03 10:39:08;;;;;;;2.90;1.97;;;24.30;99.90;;;;;;5073318;28;20429;-51
2022/08/03 10:41:41;;;;;;;2.20;1.73;;;24.30;99.90;;;;;;5073781;28;20824;-51
2022/08/03 10:44:12;;;;;;;3.23;1.70;;;24.40;99.90;;;;;;5073537;28;20448;-54
2022/08/03 10:46:40;;;;;;;3.10;1.90;;;24.40;99.90;;;;;;5073500;28;20428;-51
2022/08/03 10:49:08;;;;;;;2.10;1.90;;;24.50;99.90;;;;;;5073364;28;20505;-52
2022/08/03 10:51:35;;;;;;;3.10;1.87;;;24.50;99.90;;;;;;5073145;28;20965;-51
2022/08/03 10:54:02;;;;;;;5.57;1.80;;;24.70;99.90;;;;;;5073475;28;20505;-51
2022/08/03 10:59:58;;;;;;;2.57;2.00;;;24.80;99.90;;;;;;5073024;28;20431;-54
2022/08/03 11:03:02;;;;;;;2.00;1.33;;;24.90;99.90;;;;;;5073276;28;20472;-54
2022/08/03 11:05:30;;;;;;;2.03;1.53;;;25.00;99.90;;;;;;5073180;28;20432;-53
2022/08/03 11:08:34;;;;;;;1.50;1.20;;;25.10;99.90;;;;;;5072759;28;20929;-55
2022/08/03 11:11:23;;;;;;;1.70;1.40;;;25.10;99.90;;;;;;5072626;28;20529;-53
2022/08/03 11:14:06;;;;;;;3.30;1.60;;;25.20;99.90;;;;;;5072843;28;20441;-54
2022/08/03 11:16:35;;;;;;;2.87;2.03;;;25.30;99.90;;;;;;5073052;28;20416;-53
2022/08/03 11:19:04;;;;;;;2.73;1.80;;;25.40;99.90;;;;;;5072680;28;20456;-52
2022/08/03 11:21:55;;;;;;;4.13;1.70;;;25.50;99.90;;;;;;5072753;28;20469;-51
2022/08/03 11:24:57;;;;;;;1.67;1.30;;;25.60;99.90;;;;;;5063509;28;20494;-55
2022/08/03 11:27:25;;;;;;;3.80;1.50;;;25.60;99.90;;;;;;5072773;28;20439;-52
2022/08/03 11:29:58;;;;;;;1.90;1.40;;;25.50;99.90;;;;;;5072515;28;20448;-52
2022/08/03 11:32:56;;;;;;;1.80;1.20;;;25.70;99.90;;;;;;5072365;28;20850;-53
2022/08/03 11:35:25;;;;;;;3.53;1.33;;;25.90;99.90;;;;;;5072588;28;20449;-52
2022/08/03 11:38:10;;;;;;;3.40;1.37;;;25.90;99.90;;;;;;5072400;28;20455;-54
2022/08/03 11:40:39;;;;;;;2.07;1.53;;;25.90;99.90;;;;;;5071795;28;20448;-51
2022/08/03 11:43:08;;;;;;;2.13;1.50;;;25.90;99.90;;;;;;5072272;28;20432;-53
2022/08/03 11:45:38;;;;;;;2.00;1.70;;;26.10;99.90;;;;;;5072146;28;20892;-53
2022/08/03 11:48:16;;;;;;;2.87;1.80;;;26.10;99.90;;;;;;5072442;28;20449;-52
2022/08/03 11:50:44;;;;;;;3.53;1.70;;;26.20;99.90;;;;;;5072040;28;20479;-52
2022/08/03 11:53:16;;;;;;;2.30;1.83;;;26.30;99.90;;;;;;5072217;28;20440;-54
2022/08/03 11:55:47;;;;;;;2.83;1.70;;;26.40;99.90;;;;;;5072281;28;20955;-51
2022/08/03 11:58:19;;;;;;;2.40;1.87;;;26.30;99.90;;;;;;5072183;28;20428;-53
2022/08/03 12:00:48;;;;;;;2.00;1.20;;;26.30;99.90;;;;;;5071987;28;20941;-52
2022/08/03 12:03:17;;;;;;;3.83;1.87;;;26.30;99.90;;;;;;5072107;28;20475;-54
2022/08/03 12:05:46;;;;;;;2.20;1.70;;;26.30;99.90;;;;;;5072168;28;20433;-53
2022/08/03 12:08:16;;;;;;;2.73;1.93;;;26.40;99.90;;;;;;5072046;28;20444;-54
2022/08/03 12:10:49;;;;;;;3.73;2.20;;;26.30;99.90;;;;;;5071639;28;21015;-53
2022/08/03 12:13:17;;;;;;;4.37;2.00;;;26.40;99.90;;;;;;5071949;28;20999;-53
2022/08/03 12:15:50;;;;;;;4.40;2.27;;;26.50;99.90;;;;;;5071944;28;20449;-51
2022/08/03 12:18:19;;;;;;;2.63;1.90;;;26.60;99.90;;;;;;5071687;28;20452;-51
2022/08/03 12:20:47;;;;;;;2.33;1.90;;;26.70;99.90;;;;;;5071568;28;20443;-52
2022/08/03 12:23:15;;;;;;;2.33;1.77;;;26.70;99.90;;;;;;5071675;28;20998;-53
2022/08/03 12:25:43;;;;;;;2.00;1.70;;;26.80;99.90;;;;;;5071667;28;20449;-52
2022/08/03 12:28:17;;;;;;;2.10;1.57;;;26.90;99.90;;;;;;5071658;28;20481;-53
2022/08/03 12:30:45;;;;;;;2.27;1.83;;;26.90;99.90;;;;;;5071065;28;20494;-51
2022/08/03 12:33:20;;;;;;;2.20;1.73;;;26.90;99.90;;;;;;5071581;28;21270;-51
2022/08/03 12:35:49;;;;;;;2.20;1.23;;;27.00;99.90;;;;;;5071562;28;20448;-54
2022/08/03 12:38:21;;;;;;;1.83;1.57;;;27.00;99.90;;;;;;5071310;28;20424;-53
2022/08/03 12:40:57;;;;;;;2.20;1.73;;;27.00;99.90;;;;;;5071053;28;20547;-51
2022/08/03 12:43:25;;;;;;;2.33;1.93;;;27.00;99.90;;;;;;5071042;28;20440;-51
2022/08/03 12:45:52;;;;;;;2.10;1.53;;;27.00;99.90;;;;;;5071251;28;20482;-52
2022/08/03 12:48:20;;;;;;;2.00;1.80;;;27.00;99.90;;;;;;5071215;28;20445;-52
2022/08/03 12:50:47;;;;;;;2.60;1.97;;;27.00;99.90;;;;;;5069859;28;20514;-51
2022/08/03 12:53:28;;;;;;;2.50;1.97;;;27.10;99.90;;;;;;5071002;28;20452;-53
2022/08/03 12:56:02;;;;;;;2.03;1.53;;;27.20;99.90;;;;;;5070904;28;20441;-52
2022/08/03 12:58:32;;;;;;;2.17;1.83;;;27.10;99.90;;;;;;5071140;28;20451;-52
2022/08/03 13:00:59;;;;;;;2.40;2.20;;;27.20;99.90;;;;;;5070619;28;20821;-52
2022/08/03 13:03:27;;;;;;;2.50;2.20;;;27.30;99.90;;;;;;5070867;28;20436;-54
2022/08/03 13:05:56;;;;;;;2.33;1.60;;;27.20;99.90;;;;;;5070644;28;20443;-51
2022/08/03 13:08:24;;;;;;;2.17;1.60;;;27.30;99.90;;;;;;5070974;28;20510;-54
2022/08/03 13:10:52;;;;;;;1.80;1.60;;;27.20;99.90;;;;;;5070430;28;20513;-55